Theriot, Louisiana
Current Conditions -  °F | °C
As of 4:55 AM on Monday 22 Dec 2014 (Local Time) from KHUM Reporting Station
Haze Haze  
Wind Chill: 58°   Ceiling: 300
Heat Index: 58°   Visibility: 2mi
Dew Point: 57°   Wind: 3mph
Humidity: 99%   Direction: 50°NE
Pressure: 29.84"   Gusts: NA
Location:  29.46°N, 90.75°W
Report Text: KHUM 221055Z AUTO 05003KT 2SM BR OVC003 14/14 A2984 RMK AO2 P0003 T01420141
Loading
Personal Weather Stations






























Interactive Weather Map New forecast layout! Learn more

10-Day Weather Forecast

Advertisements
Track Severe Weather on mobile